Come By Chance, Canada
Current Conditions -  °F | °C
As of 5:00 AM on Saturday 22 Nov 2014 (Local Time) from CYYT Reporting Station
Scattered Clouds Scattered Clouds  
Wind Chill: 11°   Ceiling: Unl
Heat Index: 27°   Visibility: 15mi
Dew Point: 16°   Wind: 25mph
Humidity: 64%   Direction: 290°WNW
Pressure: 29.5"   Gusts: 37mph
Location:  47.85°N, 53.98°W
Report Text: CYYT 220800Z 29022G32KT 15SM SCT033 M03/M09 A2950 RMK SC4 SLP996
Loading
Personal Weather Stations






























Interactive Weather Map New forecast layout! Learn more

10-Day Weather Forecast

Advertisements
Track Severe Weather on mobile